^^
Station Historical Data
Daily Summary for June 24, 2017 Units:  Metric    English   Both
« Previous Day
Next Day »
Daily Weekly Monthly Yearly Custom
  High: Low: Average:
Temperature: 20.6 °C 5.1 °C 8.3 °C
Dew Point: 4.6 °C -2.4 °C 2.5 °C
Humidity: 81% 31% 68%
Wind Speed: 20.9km/h 0km/h 1.6km/h
Wind Gust: 22.5km/h - -
Wind- - NW
Pressure: 1024.3 hPa 1019.5 hPa -
Precipitation: 0 mm    
Historical Graphs
 
 
Tabular Data for June 24, 2017
Time Temperature Dew Point Pressure Wind Wind Speed Wind Gust Humidity Rainfall Rate (Hourly) solar Conditions
02:45 8.6 °C 2 °C 1022.2 hPa Calm     63% 0 mm 0.0 W/m2
02:50 8.4 °C 2 °C 1022.2 hPa Calm     64% 0 mm 0.0 W/m2
02:55 8.2 °C 2 °C 1022.2 hPa Calm     65% 0 mm 0.0 W/m2
03:00 8.2 °C 2 °C 1022.2 hPa Calm     65% 0 mm 0.0 W/m2
03:06 8.1 °C 2.3 °C 1022.2 hPa Calm     67% 0 mm 0.0 W/m2
03:16 8.4 °C 2.8 °C 1022.2 hPa Calm     68% 0 mm 0.0 W/m2
03:21 8.7 °C 3.3 °C 1022.2 hPa NW 1.4 km/h 1.6 km/h 69% 0 mm 0.0 W/m2
03:26 8.9 °C 2.9 °C 1022.2 hPa NW 4.7 km/h 8 km/h 66% 0 mm 0.0 W/m2
03:31 8.7 °C 2.9 °C 1022.2 hPa NW 6.4 km/h 9.7 km/h 67% 0 mm 0.0 W/m2
03:36 8.5 °C 2.9 °C 1022.2 hPa NW 3.2 km/h 9.7 km/h 68% 0 mm 0.0 W/m2
03:41 8.4 °C 2.8 °C 1022.2 hPa NW 1.4 km/h 8 km/h 68% 0 mm 0.0 W/m2
03:46 8.3 °C 2.7 °C 1022.2 hPa NW 6.4 km/h 9.7 km/h 68% 0 mm 0.0 W/m2
03:56 7.9 °C 2.6 °C 1022.2 hPa Calm     69% 0 mm 0.0 W/m2
04:01 7.8 °C 2.7 °C 1022.2 hPa Calm     70% 0 mm 0.0 W/m2
04:06 7.7 °C 2.8 °C 1022.6 hPa NW 4.7 km/h 8 km/h 71% 0 mm 0.0 W/m2
04:11 7.6 °C 2.7 °C 1022.2 hPa Calm   9.7 km/h 71% 0 mm 0.0 W/m2
04:16 7.6 °C 2.7 °C 1022.2 hPa NW 4.7 km/h 9.7 km/h 71% 0 mm 0.0 W/m2
04:26 7.4 °C 2.7 °C 1022.2 hPa NW 7.9 km/h 8 km/h 72% 0 mm 0.0 W/m2
04:31 7.5 °C 2.8 °C 1022.2 hPa Calm   8 km/h 72% 0 mm 0.0 W/m2
04:37 7.5 °C 2.8 °C 1022.2 hPa Calm   6.4 km/h 72% 0 mm 0.0 W/m2
04:42 7.4 °C 2.7 °C 1022.2 hPa Calm     72% 0 mm 0.0 W/m2
04:47 7.4 °C 2.9 °C 1022.2 hPa Calm     73% 0 mm 0.0 W/m2
04:52 7.4 °C 2.7 °C 1022.2 hPa Calm     72% 0 mm 0.0 W/m2
04:57 7.3 °C 2.6 °C 1022.6 hPa Calm     72% 0 mm 0.0 W/m2
05:02 7.2 °C 2.7 °C 1022.6 hPa Calm     73% 0 mm 0.0 W/m2
05:08 7.2 °C 2.7 °C 1022.6 hPa Calm     73% 0 mm 0.0 W/m2
05:13 7.1 °C 2.6 °C 1022.6 hPa Calm     73% 0 mm 0.0 W/m2
05:18 6.9 °C 2.4 °C 1022.6 hPa Calm     73% 0 mm 0.0 W/m2
05:23 6.8 °C 2.5 °C 1022.6 hPa Calm     74% 0 mm 0.0 W/m2
05:28 6.6 °C 2.3 °C 1022.6 hPa Calm     74% 0 mm 0.0 W/m2
05:33 6.4 °C 2.1 °C 1022.6 hPa Calm     74% 0 mm 0.0 W/m2
05:39 6.2 °C 2.1 °C 1022.9 hPa Calm     75% 0 mm 0.0 W/m2
05:44 6 °C 2.1 °C 1022.9 hPa Calm     76% 0 mm 0.0 W/m2
05:49 5.8 °C 1.9 °C 1022.9 hPa Calm     76% 0 mm 0.0 W/m2
05:55 5.7 °C 1.8 °C 1022.9 hPa Calm     76% 0 mm 0.0 W/m2
06:00 5.6 °C 1.9 °C 1022.9 hPa Calm     77% 0 mm 0.0 W/m2
06:05 5.5 °C 1.8 °C 1022.9 hPa Calm     77% 0 mm 0.0 W/m2
06:13 5.3 °C 1.6 °C 1022.9 hPa Calm     77% 0 mm 0.0 W/m2
06:25 5.1 °C 1.6 °C 1023.2 hPa Calm     78% 0 mm 0.0 W/m2
06:36 5.1 °C 1.8 °C 1023.2 hPa Calm     79% 0 mm 0.0 W/m2
06:46 5.4 °C 2.4 °C 1023.2 hPa Calm     81% 0 mm 7.0 W/m2
07:09 6.1 °C 2.7 °C 1023.6 hPa Calm     79% 0 mm 12.0 W/m2
07:25 6.8 °C 3.1 °C 1023.9 hPa Calm     77% 0 mm 18.0 W/m2
07:45 8.4 °C 3.8 °C 1023.9 hPa Calm     73% 0 mm 116.0 W/m2
08:28 12.1 °C 4.1 °C 1024.3 hPa NW 7.9 km/h 17.7 km/h 58% 0 mm 269.0 W/m2
10:27 16.2 °C 4.6 °C 1023.9 hPa NW 11.1 km/h 20.9 km/h 46% 0 mm 526.0 W/m2
11:17 18.4 °C 4.2 °C 1023.2 hPa Calm   14.5 km/h 39% 0 mm 575.0 W/m2
11:42 20.1 °C 3.7 °C 1022.6 hPa NNW 20.9 km/h 20.9 km/h 34% 0 mm 584.0 W/m2
12:11 20.6 °C 2.9 °C 1021.9 hPa NNW 1.4 km/h 22.5 km/h 31% 0 mm 584.0 W/m2
23:56 12.7 °C -2.4 °C 1019.5 hPa Calm     35% 0 mm 0.0 W/m2
Canyon Roadhouse, Fishriver Canyon, Namibia
Compliments of Weather Underground - 1.75 mb